createdAt,value
2018-05-08T00:00:24.569Z,1009.95
2018-05-08T00:01:24.564Z,1009.94
2018-05-08T00:02:24.555Z,1009.96
2018-05-08T00:03:24.577Z,1009.95
2018-05-08T00:04:24.558Z,1009.97
2018-05-08T00:05:24.567Z,1009.95
2018-05-08T00:06:24.577Z,1009.93
2018-05-08T00:07:24.555Z,1009.96
2018-05-08T00:08:24.566Z,1009.91
2018-05-08T00:09:24.556Z,1009.91
2018-05-08T00:10:24.567Z,1009.88
2018-05-08T00:11:24.556Z,1009.86
2018-05-08T00:12:24.765Z,1009.90
2018-05-08T00:13:24.582Z,1009.86
2018-05-08T00:14:24.556Z,1009.85
2018-05-08T00:15:24.567Z,1009.80
2018-05-08T00:16:24.567Z,1009.82
2018-05-08T00:17:24.555Z,1009.85
2018-05-08T00:18:24.560Z,1009.84
2018-05-08T00:19:24.761Z,1009.83
2018-05-08T00:20:24.556Z,1009.83
2018-05-08T00:21:24.573Z,1009.82
2018-05-08T00:22:24.558Z,1009.86
2018-05-08T00:23:24.563Z,1009.84
2018-05-08T00:24:24.557Z,1009.86
2018-05-08T00:25:24.555Z,1009.81
2018-05-08T00:26:24.561Z,1009.86
2018-05-08T00:27:24.557Z,1009.79
2018-05-08T00:28:24.566Z,1009.82
2018-05-08T00:29:24.573Z,1009.82
2018-05-08T00:30:24.557Z,1009.80
2018-05-08T00:31:24.567Z,1009.79
2018-05-08T00:32:24.760Z,1009.73
2018-05-08T00:33:24.555Z,1009.74
2018-05-08T00:34:24.555Z,1009.69
2018-05-08T00:35:24.553Z,1009.71
2018-05-08T00:36:24.556Z,1009.74
2018-05-08T00:37:24.554Z,1009.72
2018-05-08T00:38:24.772Z,1009.72
2018-05-08T00:39:24.554Z,1009.72
2018-05-08T00:40:24.755Z,1009.73
2018-05-08T00:41:24.568Z,1009.67
2018-05-08T00:42:24.757Z,1009.68
2018-05-08T00:43:24.551Z,1009.64
2018-05-08T00:44:24.565Z,1009.65
2018-05-08T00:45:24.764Z,1009.65
2018-05-08T00:46:24.557Z,1009.67
2018-05-08T00:47:24.762Z,1009.61
2018-05-08T00:48:24.551Z,1009.64
2018-05-08T00:49:24.760Z,1009.60
2018-05-08T00:50:24.560Z,1009.57
2018-05-08T00:51:24.557Z,1009.60
2018-05-08T00:52:24.748Z,1009.59
2018-05-08T00:53:24.555Z,1009.58
2018-05-08T00:54:24.548Z,1009.57
2018-05-08T00:55:24.560Z,1009.55
2018-05-08T00:56:24.544Z,1009.55
2018-05-08T00:57:24.541Z,1009.59
2018-05-08T00:58:24.541Z,1009.53
2018-05-08T00:59:24.552Z,1009.54
2018-05-08T01:00:24.540Z,1009.52
2018-05-08T01:01:24.538Z,1009.49
2018-05-08T01:02:24.552Z,1009.48
2018-05-08T01:03:24.537Z,1009.44
2018-05-08T01:04:24.537Z,1009.48
2018-05-08T01:05:24.546Z,1009.46
2018-05-08T01:06:24.761Z,1009.44
2018-05-08T01:07:24.533Z,1009.42
2018-05-08T01:08:24.535Z,1009.46
2018-05-08T01:09:24.541Z,1009.44
2018-05-08T01:10:24.556Z,1009.47
2018-05-08T01:11:24.540Z,1009.46
2018-05-08T01:12:24.558Z,1009.47
2018-05-08T01:13:24.525Z,1009.46
2018-05-08T01:14:24.539Z,1009.47
2018-05-08T01:15:24.728Z,1009.50
2018-05-08T01:16:24.725Z,1009.48
2018-05-08T01:17:24.521Z,1009.48
2018-05-08T01:18:24.533Z,1009.47
2018-05-08T01:19:24.533Z,1009.42
2018-05-08T01:20:24.538Z,1009.45
2018-05-08T01:21:24.719Z,1009.43
2018-05-08T01:22:24.519Z,1009.43
2018-05-08T01:23:24.525Z,1009.39
2018-05-08T01:24:24.523Z,1009.41
2018-05-08T01:25:24.513Z,1009.37
2018-05-08T01:26:24.521Z,1009.36
2018-05-08T01:27:24.711Z,1009.40
2018-05-08T01:28:24.518Z,1009.31
2018-05-08T01:29:24.506Z,1009.35
2018-05-08T01:30:24.508Z,1009.37
2018-05-08T01:31:24.515Z,1009.32
2018-05-08T01:32:24.502Z,1009.33
2018-05-08T01:33:24.499Z,1009.35
2018-05-08T01:34:24.505Z,1009.29
2018-05-08T01:35:24.507Z,1009.31
2018-05-08T01:36:24.508Z,1009.32
2018-05-08T01:37:24.496Z,1009.30
2018-05-08T01:38:24.493Z,1009.29
2018-05-08T01:39:24.493Z,1009.32
2018-05-08T01:40:24.691Z,1009.31
2018-05-08T01:41:24.703Z,1009.31
2018-05-08T01:42:24.493Z,1009.29
2018-05-08T01:43:24.492Z,1009.34
2018-05-08T01:44:24.483Z,1009.32
2018-05-08T01:45:24.694Z,1009.30
2018-05-08T01:46:24.477Z,1009.34
2018-05-08T01:47:24.683Z,1009.30
2018-05-08T01:48:24.476Z,1009.28
2018-05-08T01:49:24.484Z,1009.29
2018-05-08T01:50:24.472Z,1009.25
2018-05-08T01:51:24.468Z,1009.24
2018-05-08T01:52:24.470Z,1009.21
2018-05-08T01:53:24.678Z,1009.19
2018-05-08T01:54:24.471Z,1009.20
2018-05-08T01:55:24.667Z,1009.16
2018-05-08T01:56:24.677Z,1009.19
2018-05-08T01:57:24.461Z,1009.15
2018-05-08T01:58:24.468Z,1009.17
2018-05-08T01:59:24.657Z,1009.19
2018-05-08T02:00:24.464Z,1009.17
2018-05-08T02:01:24.453Z,1009.15
2018-05-08T02:02:24.653Z,1009.15
2018-05-08T02:03:24.459Z,1009.14
2018-05-08T02:04:24.447Z,1009.15
2018-05-08T02:05:24.672Z,1009.15
2018-05-08T02:06:24.445Z,1009.08
2018-05-08T02:07:24.442Z,1009.09
2018-05-08T02:08:24.451Z,1009.07
2018-05-08T02:09:24.444Z,1009.06
2018-05-08T02:10:24.448Z,1009.03
2018-05-08T02:11:24.431Z,1009.01
2018-05-08T02:12:24.431Z,1009.02
2018-05-08T02:13:24.445Z,1009.03
2018-05-08T02:14:24.443Z,1009.00
2018-05-08T02:15:24.435Z,1009.01
2018-05-08T02:16:24.425Z,1009.01
2018-05-08T02:17:24.424Z,1009.00
2018-05-08T02:18:24.460Z,1009.02
2018-05-08T02:19:24.430Z,1008.98
2018-05-08T02:20:24.555Z,1008.99
2018-05-08T02:21:24.413Z,1008.97
2018-05-08T02:22:24.425Z,1008.98
2018-05-08T02:23:24.420Z,1008.95
2018-05-08T02:24:24.408Z,1008.92
2018-05-08T02:25:24.403Z,1008.94
2018-05-08T02:26:24.402Z,1008.89
2018-05-08T02:27:24.400Z,1008.89
2018-05-08T02:28:24.398Z,1008.91
2018-05-08T02:29:24.406Z,1008.93
2018-05-08T02:30:24.395Z,1008.88
2018-05-08T02:31:24.393Z,1008.88
2018-05-08T02:32:24.392Z,1008.87
2018-05-08T02:33:24.388Z,1008.83
2018-05-08T02:34:24.385Z,1008.87
2018-05-08T02:35:24.383Z,1008.84
2018-05-08T02:36:24.384Z,1008.87
2018-05-08T02:37:24.388Z,1008.85
2018-05-08T02:38:24.381Z,1008.86
2018-05-08T02:39:24.375Z,1008.86
2018-05-08T02:40:24.575Z,1008.85
2018-05-08T02:41:24.381Z,1008.88
2018-05-08T02:42:24.583Z,1008.83
2018-05-08T02:43:24.364Z,1008.84
2018-05-08T02:44:24.579Z,1008.80
2018-05-08T02:45:24.361Z,1008.84
2018-05-08T02:46:24.369Z,1008.84
2018-05-08T02:47:24.357Z,1008.82
2018-05-08T02:48:24.357Z,1008.81
2018-05-08T02:49:24.354Z,1008.80
2018-05-08T02:50:24.349Z,1008.78
2018-05-08T02:51:24.347Z,1008.79
2018-05-08T02:52:24.345Z,1008.81
2018-05-08T02:53:24.353Z,1008.74
2018-05-08T02:54:24.355Z,1008.79
2018-05-08T02:55:24.657Z,1008.79
2018-05-08T02:56:24.333Z,1008.77
2018-05-08T02:57:24.343Z,1008.75
2018-05-08T02:58:24.329Z,1008.78
2018-05-08T02:59:24.337Z,1008.81
2018-05-08T03:00:24.335Z,1008.76
2018-05-08T03:01:24.335Z,1008.74
2018-05-08T03:02:24.319Z,1008.73
2018-05-08T03:03:24.520Z,1008.74
2018-05-08T03:04:24.325Z,1008.74
2018-05-08T03:05:24.322Z,1008.75
2018-05-08T03:06:24.527Z,1008.76
2018-05-08T03:07:24.312Z,1008.73
2018-05-08T03:08:24.508Z,1008.72
2018-05-08T03:09:24.523Z,1008.72
2018-05-08T03:10:24.311Z,1008.68
2018-05-08T03:11:24.311Z,1008.66
2018-05-08T03:12:24.496Z,1008.65
2018-05-08T03:13:24.511Z,1008.64
2018-05-08T03:14:24.297Z,1008.65
2018-05-08T03:15:24.289Z,1008.67
2018-05-08T03:16:24.289Z,1008.69
2018-05-08T03:17:24.282Z,1008.63
2018-05-08T03:18:24.292Z,1008.65
2018-05-08T03:19:24.281Z,1008.65
2018-05-08T03:20:24.275Z,1008.65
2018-05-08T03:21:24.472Z,1008.64
2018-05-08T03:22:24.556Z,1008.64
2018-05-08T03:23:24.275Z,1008.64
2018-05-08T03:24:24.490Z,1008.69
2018-05-08T03:25:24.273Z,1008.65
2018-05-08T03:26:24.484Z,1008.67
2018-05-08T03:27:24.269Z,1008.65
2018-05-08T03:28:24.253Z,1008.64
2018-05-08T03:29:24.456Z,1008.67
2018-05-08T03:30:24.249Z,1008.65
2018-05-08T03:31:24.259Z,1008.66
2018-05-08T03:32:24.447Z,1008.66
2018-05-08T03:33:24.445Z,1008.63
2018-05-08T03:34:24.248Z,1008.62
2018-05-08T03:35:24.236Z,1008.67
2018-05-08T03:36:24.233Z,1008.62
2018-05-08T03:37:24.239Z,1008.65
2018-05-08T03:38:24.246Z,1008.63
2018-05-08T03:39:24.224Z,1008.62
2018-05-08T03:40:24.221Z,1008.60
2018-05-08T03:41:24.422Z,1008.62
2018-05-08T03:42:24.422Z,1008.64
2018-05-08T03:43:24.237Z,1008.54
2018-05-08T03:44:24.212Z,1008.55
2018-05-08T03:45:24.227Z,1008.56
2018-05-08T03:46:24.210Z,1008.52
2018-05-08T03:47:24.204Z,1008.53
2018-05-08T03:48:24.204Z,1008.53
2018-05-08T03:49:24.206Z,1008.56
2018-05-08T03:50:24.195Z,1008.52
2018-05-08T03:51:24.201Z,1008.50
2018-05-08T03:52:24.405Z,1008.52
2018-05-08T03:53:24.187Z,1008.49
2018-05-08T03:54:24.186Z,1008.50
2018-05-08T03:55:24.193Z,1008.50
2018-05-08T03:56:24.187Z,1008.49
2018-05-08T03:57:24.222Z,1008.52
2018-05-08T03:58:24.176Z,1008.49
2018-05-08T03:59:24.183Z,1008.48
2018-05-08T04:00:24.169Z,1008.47
2018-05-08T04:01:24.165Z,1008.47
2018-05-08T04:02:24.161Z,1008.45
2018-05-08T04:03:24.171Z,1008.43
2018-05-08T04:04:24.167Z,1008.45
2018-05-08T04:05:24.161Z,1008.45
2018-05-08T04:06:24.352Z,1008.45
2018-05-08T04:07:24.146Z,1008.46
2018-05-08T04:08:24.429Z,1008.44
2018-05-08T04:09:24.359Z,1008.47
2018-05-08T04:10:24.136Z,1008.46
2018-05-08T04:11:24.133Z,1008.41
2018-05-08T04:12:24.132Z,1008.42
2018-05-08T04:13:24.345Z,1008.39
2018-05-08T04:14:24.141Z,1008.37
2018-05-08T04:15:24.203Z,1008.39
2018-05-08T04:16:24.117Z,1008.33
2018-05-08T04:17:24.129Z,1008.34
2018-05-08T04:18:24.112Z,1008.34
2018-05-08T04:19:24.315Z,1008.35
2018-05-08T04:20:24.120Z,1008.33
2018-05-08T04:21:24.323Z,1008.30
2018-05-08T04:22:24.112Z,1008.29
2018-05-08T04:23:24.097Z,1008.33
2018-05-08T04:24:24.098Z,1008.30
2018-05-08T04:25:24.106Z,1008.29
2018-05-08T04:26:24.095Z,1008.29
2018-05-08T04:27:24.098Z,1008.28
2018-05-08T04:28:24.087Z,1008.29
2018-05-08T04:29:24.096Z,1008.28
2018-05-08T04:30:24.105Z,1008.26
2018-05-08T04:31:24.280Z,1008.28
2018-05-08T04:32:24.276Z,1008.29
2018-05-08T04:33:24.274Z,1008.27
2018-05-08T04:34:24.076Z,1008.26
2018-05-08T04:35:24.267Z,1008.28
2018-05-08T04:36:24.070Z,1008.26
2018-05-08T04:37:24.068Z,1008.28
2018-05-08T04:38:24.274Z,1008.27
2018-05-08T04:39:24.073Z,1008.26
2018-05-08T04:40:24.069Z,1008.25
2018-05-08T04:41:24.049Z,1008.23
2018-05-08T04:42:24.055Z,1008.22
2018-05-08T04:43:24.053Z,1008.25
2018-05-08T04:44:24.055Z,1008.24
2018-05-08T04:45:24.046Z,1008.22
2018-05-08T04:46:24.033Z,1008.16
2018-05-08T04:47:24.084Z,1008.20
2018-05-08T04:48:24.026Z,1008.22
2018-05-08T04:49:24.240Z,1008.19
2018-05-08T04:50:24.019Z,1008.18
2018-05-08T04:51:24.031Z,1008.18
2018-05-08T04:52:24.013Z,1008.15
2018-05-08T04:53:24.012Z,1008.18
2018-05-08T04:54:24.030Z,1008.16
2018-05-08T04:55:24.209Z,1008.19
2018-05-08T04:56:24.002Z,1008.21
2018-05-08T04:57:24.010Z,1008.17
2018-05-08T04:58:24.007Z,1008.18
2018-05-08T04:59:24.199Z,1008.18
2018-05-08T05:00:24.002Z,1008.15
2018-05-08T05:01:23.990Z,1008.16
2018-05-08T05:02:24.000Z,1008.12
2018-05-08T05:03:23.992Z,1008.14
2018-05-08T05:04:24.186Z,1008.11
2018-05-08T05:05:24.187Z,1008.14
2018-05-08T05:06:23.977Z,1008.07
2018-05-08T05:07:23.982Z,1008.09
2018-05-08T05:08:23.972Z,1008.04
2018-05-08T05:09:23.964Z,1008.06
2018-05-08T05:10:23.965Z,1008.04
2018-05-08T05:11:23.965Z,1008.08
2018-05-08T05:12:23.987Z,1008.09
2018-05-08T05:13:23.965Z,1008.07
2018-05-08T05:14:23.951Z,1008.04
2018-05-08T05:15:23.950Z,1008.03
2018-05-08T05:16:24.152Z,1008.01
2018-05-08T05:17:23.954Z,1008.00
2018-05-08T05:18:23.954Z,1008.03
2018-05-08T05:19:23.961Z,1008.03
2018-05-08T05:20:24.153Z,1008.04
2018-05-08T05:21:24.163Z,1008.01
2018-05-08T05:22:24.135Z,1008.12
2018-05-08T05:23:23.929Z,1008.06
2018-05-08T05:24:24.010Z,1008.03
2018-05-08T05:25:23.923Z,1008.06
2018-05-08T05:26:23.933Z,1008.09
2018-05-08T05:27:23.917Z,1008.09
2018-05-08T05:28:23.916Z,1008.10
2018-05-08T05:29:23.929Z,1008.08
2018-05-08T05:30:23.923Z,1008.06
2018-05-08T05:31:23.912Z,1008.09
2018-05-08T05:32:24.109Z,1008.08
2018-05-08T05:33:23.904Z,1008.07
2018-05-08T05:34:23.928Z,1008.07
2018-05-08T05:35:23.900Z,1008.05
2018-05-08T05:36:23.908Z,1008.00
2018-05-08T05:37:23.908Z,1008.00
2018-05-08T05:38:23.894Z,1007.99
2018-05-08T05:39:23.890Z,1008.00
2018-05-08T05:40:24.093Z,1008.01
2018-05-08T05:41:24.090Z,1008.01
2018-05-08T05:42:23.918Z,1008.00
2018-05-08T05:43:23.891Z,1008.00
2018-05-08T05:44:23.892Z,1008.07
2018-05-08T05:45:23.889Z,1008.03
2018-05-08T05:46:24.080Z,1008.05
2018-05-08T05:47:24.079Z,1008.07
2018-05-08T05:48:24.095Z,1008.04
2018-05-08T05:49:23.872Z,1008.01
2018-05-08T05:50:23.880Z,1008.05
2018-05-08T05:51:23.887Z,1008.03
2018-05-08T05:52:23.894Z,1008.02
2018-05-08T05:53:23.965Z,1008.04
2018-05-08T05:54:24.064Z,1008.02
2018-05-08T05:55:24.072Z,1008.02
2018-05-08T05:56:23.861Z,1008.00
2018-05-08T05:57:24.078Z,1008.03
2018-05-08T05:58:24.069Z,1008.01
2018-05-08T05:59:23.860Z,1008.02
2018-05-08T06:00:23.848Z,1007.98
2018-05-08T06:01:23.851Z,1008.01
2018-05-08T06:02:23.856Z,1007.98
2018-05-08T06:03:23.847Z,1008.04
2018-05-08T06:04:24.053Z,1008.00
2018-05-08T06:05:23.843Z,1007.97
2018-05-08T06:06:24.077Z,1007.98
2018-05-08T06:07:23.850Z,1008.01
2018-05-08T06:08:23.835Z,1008.00
2018-05-08T06:09:23.831Z,1007.98
2018-05-08T06:10:23.838Z,1007.95
2018-05-08T06:11:24.034Z,1007.95
2018-05-08T06:12:23.827Z,1007.95
2018-05-08T06:13:24.035Z,1007.97
2018-05-08T06:14:23.824Z,1007.94
2018-05-08T06:15:23.822Z,1007.93
2018-05-08T06:16:23.824Z,1007.91
2018-05-08T06:17:23.833Z,1007.89
2018-05-08T06:18:23.818Z,1007.92
2018-05-08T06:19:24.026Z,1007.88
2018-05-08T06:20:23.896Z,1007.92
2018-05-08T06:21:24.017Z,1007.93
2018-05-08T06:22:23.828Z,1007.96
2018-05-08T06:23:24.015Z,1007.92
2018-05-08T06:24:23.810Z,1007.87
2018-05-08T06:25:23.810Z,1007.91
2018-05-08T06:26:23.807Z,1007.92
2018-05-08T06:27:23.822Z,1007.91
2018-05-08T06:28:24.010Z,1007.91
2018-05-08T06:29:23.809Z,1007.87
2018-05-08T06:30:23.804Z,1007.87
2018-05-08T06:31:24.024Z,1007.87
2018-05-08T06:32:23.815Z,1007.83
2018-05-08T06:33:24.003Z,1007.81
2018-05-08T06:34:23.809Z,1007.84
2018-05-08T06:35:23.797Z,1007.86
2018-05-08T06:36:23.819Z,1007.85
2018-05-08T06:37:23.807Z,1007.86
2018-05-08T06:38:23.797Z,1007.87
2018-05-08T06:39:23.803Z,1007.83
2018-05-08T06:40:23.793Z,1007.84
2018-05-08T06:41:23.806Z,1007.82
2018-05-08T06:42:23.996Z,1007.82
2018-05-08T06:43:23.791Z,1007.80
2018-05-08T06:44:24.022Z,1007.80
2018-05-08T06:45:23.809Z,1007.80
2018-05-08T06:46:23.800Z,1007.83
2018-05-08T06:47:23.998Z,1007.82
2018-05-08T06:48:24.006Z,1007.78
2018-05-08T06:49:23.798Z,1007.85
2018-05-08T06:50:23.788Z,1007.79
2018-05-08T06:51:23.786Z,1007.80
2018-05-08T06:52:23.795Z,1007.80
2018-05-08T06:53:23.820Z,1007.83
2018-05-08T06:54:23.804Z,1007.82
2018-05-08T06:55:23.795Z,1007.80
2018-05-08T06:56:23.805Z,1007.78
2018-05-08T06:57:23.792Z,1007.77
2018-05-08T06:58:23.781Z,1007.76
2018-05-08T06:59:24.000Z,1007.77
2018-05-08T07:00:23.783Z,1007.81
2018-05-08T07:01:23.793Z,1007.81
2018-05-08T07:02:23.789Z,1007.78
2018-05-08T07:03:23.779Z,1007.79
2018-05-08T07:04:23.776Z,1007.84
2018-05-08T07:05:23.776Z,1007.78
2018-05-08T07:06:23.786Z,1007.84
2018-05-08T07:07:23.981Z,1007.88
2018-05-08T07:08:23.800Z,1007.88
2018-05-08T07:09:23.977Z,1007.92
2018-05-08T07:10:23.784Z,1007.87
2018-05-08T07:11:23.774Z,1007.82
2018-05-08T07:12:23.976Z,1007.83
2018-05-08T07:13:23.777Z,1007.85
2018-05-08T07:14:23.785Z,1007.83
2018-05-08T07:15:23.781Z,1007.87
2018-05-08T07:16:23.773Z,1007.89
2018-05-08T07:17:23.989Z,1007.94
2018-05-08T07:18:23.773Z,1007.93
2018-05-08T07:19:23.785Z,1007.89
2018-05-08T07:20:23.774Z,1007.95
2018-05-08T07:21:23.775Z,1007.97
2018-05-08T07:22:23.777Z,1007.95
2018-05-08T07:23:23.778Z,1007.96
2018-05-08T07:24:23.995Z,1007.96
2018-05-08T07:25:23.781Z,1007.95
2018-05-08T07:26:23.783Z,1007.88
2018-05-08T07:27:23.806Z,1007.88
2018-05-08T07:28:24.004Z,1007.80
2018-05-08T07:29:23.815Z,1007.79
2018-05-08T07:30:23.804Z,1007.82
2018-05-08T07:31:23.790Z,1007.75
2018-05-08T07:32:23.805Z,1007.80
2018-05-08T07:33:23.797Z,1007.96
2018-05-08T07:34:23.798Z,1007.94
2018-05-08T07:35:23.999Z,1007.82
2018-05-08T07:36:23.812Z,1007.76
2018-05-08T07:37:23.815Z,1007.72
2018-05-08T07:38:23.854Z,1007.71
2018-05-08T07:39:23.805Z,1007.73
2018-05-08T07:40:23.820Z,1007.70
2018-05-08T07:41:23.809Z,1007.68
2018-05-08T07:42:23.810Z,1007.71
2018-05-08T07:43:23.821Z,1007.72
2018-05-08T07:44:24.035Z,1007.73
2018-05-08T07:45:23.845Z,1007.72
2018-05-08T07:46:23.831Z,1007.76
2018-05-08T07:47:24.032Z,1007.81
2018-05-08T07:48:23.835Z,1007.82
2018-05-08T07:49:23.826Z,1007.88
2018-05-08T07:50:23.826Z,1007.84
2018-05-08T07:51:23.850Z,1007.73
2018-05-08T07:52:23.842Z,1007.76
2018-05-08T07:53:23.830Z,1007.75
2018-05-08T07:54:23.840Z,1007.76
2018-05-08T07:55:23.831Z,1007.69
2018-05-08T07:56:23.842Z,1007.75
2018-05-08T07:57:23.834Z,1007.70
2018-05-08T07:58:24.042Z,1007.73
2018-05-08T07:59:23.860Z,1007.68
2018-05-08T08:00:23.857Z,1007.65
2018-05-08T08:01:23.841Z,1007.67
2018-05-08T08:02:24.062Z,1007.71
2018-05-08T08:03:23.881Z,1007.67
2018-05-08T08:04:23.850Z,1007.69
2018-05-08T08:05:23.848Z,1007.66
2018-05-08T08:06:23.848Z,1007.65
2018-05-08T08:07:23.859Z,1007.66
2018-05-08T08:08:24.070Z,1007.69
2018-05-08T08:09:23.879Z,1007.72
2018-05-08T08:10:24.068Z,1007.67
2018-05-08T08:11:23.858Z,1007.70
2018-05-08T08:12:23.955Z,1007.71
2018-05-08T08:13:23.862Z,1007.68
2018-05-08T08:14:23.861Z,1007.66
2018-05-08T08:15:23.867Z,1007.65
2018-05-08T08:16:23.866Z,1007.64
2018-05-08T08:17:23.879Z,1007.61
2018-05-08T08:18:23.880Z,1007.63
2018-05-08T08:19:23.880Z,1007.62
2018-05-08T08:20:24.076Z,1007.61
2018-05-08T08:21:23.888Z,1007.58
2018-05-08T08:22:23.876Z,1007.67
2018-05-08T08:23:23.888Z,1007.65
2018-05-08T08:24:23.881Z,1007.61
2018-05-08T08:25:23.881Z,1007.62
2018-05-08T08:26:23.885Z,1007.65
2018-05-08T08:27:24.102Z,1007.64
2018-05-08T08:28:23.890Z,1007.65
2018-05-08T08:29:23.894Z,1007.64
2018-05-08T08:30:24.100Z,1007.61
2018-05-08T08:31:23.909Z,1007.58
2018-05-08T08:32:23.924Z,1007.60
2018-05-08T08:33:23.922Z,1007.59
2018-05-08T08:34:23.911Z,1007.57
2018-05-08T08:35:24.114Z,1007.57
2018-05-08T08:36:23.911Z,1007.52
2018-05-08T08:37:23.922Z,1007.54
2018-05-08T08:38:23.915Z,1007.56
2018-05-08T08:39:23.917Z,1007.56
2018-05-08T08:40:23.934Z,1007.58
2018-05-08T08:41:24.125Z,1007.54
2018-05-08T08:42:24.127Z,1007.52
2018-05-08T08:43:23.927Z,1007.53
2018-05-08T08:44:24.143Z,1007.49
2018-05-08T08:45:23.937Z,1007.53
2018-05-08T08:46:24.170Z,1007.51
2018-05-08T08:47:24.137Z,1007.52
2018-05-08T08:48:23.948Z,1007.53
2018-05-08T08:49:23.942Z,1007.52
2018-05-08T08:50:24.145Z,1007.50
2018-05-08T08:51:23.945Z,1007.50
2018-05-08T08:52:24.224Z,1007.47
2018-05-08T08:53:23.955Z,1007.44
2018-05-08T08:54:24.159Z,1007.48
2018-05-08T08:55:23.956Z,1007.44
2018-05-08T08:56:24.159Z,1007.43
2018-05-08T08:57:23.960Z,1007.39
2018-05-08T08:58:23.992Z,1007.39
2018-05-08T08:59:23.967Z,1007.42
2018-05-08T09:00:23.971Z,1007.36
2018-05-08T09:01:23.975Z,1007.38
2018-05-08T09:02:23.969Z,1007.33
2018-05-08T09:03:23.987Z,1007.41
2018-05-08T09:04:23.979Z,1007.34
2018-05-08T09:05:24.196Z,1007.37
2018-05-08T09:06:23.983Z,1007.34
2018-05-08T09:07:23.994Z,1007.36
2018-05-08T09:08:24.006Z,1007.32
2018-05-08T09:09:23.990Z,1007.32
2018-05-08T09:10:24.222Z,1007.34
2018-05-08T09:11:24.008Z,1007.33
2018-05-08T09:12:24.000Z,1007.33
2018-05-08T09:13:24.020Z,1007.29
2018-05-08T09:14:24.213Z,1007.30
2018-05-08T09:15:24.215Z,1007.26
2018-05-08T09:16:24.020Z,1007.26
2018-05-08T09:17:24.236Z,1007.24
2018-05-08T09:18:24.026Z,1007.20
2018-05-08T09:19:24.012Z,1007.16
2018-05-08T09:20:24.016Z,1007.15
2018-05-08T09:21:24.020Z,1007.14
2018-05-08T09:22:24.020Z,1007.12
2018-05-08T09:23:24.023Z,1007.09
2018-05-08T09:24:24.025Z,1007.13
2018-05-08T09:25:24.230Z,1007.10
2018-05-08T09:26:24.235Z,1007.09
2018-05-08T09:27:24.090Z,1007.03
2018-05-08T09:28:24.045Z,1007.04
2018-05-08T09:29:24.038Z,1007.04
2018-05-08T09:30:24.041Z,1007.03
2018-05-08T09:31:24.253Z,1006.99
2018-05-08T09:32:24.043Z,1006.98
2018-05-08T09:33:24.051Z,1006.94
2018-05-08T09:34:24.259Z,1006.94
2018-05-08T09:35:24.050Z,1006.92
2018-05-08T09:36:24.062Z,1006.89
2018-05-08T09:37:24.258Z,1006.87
2018-05-08T09:38:24.060Z,1006.87
2018-05-08T09:39:24.262Z,1006.87
2018-05-08T09:40:24.072Z,1006.82
2018-05-08T09:41:24.074Z,1006.82
2018-05-08T09:42:24.075Z,1006.81
2018-05-08T09:43:24.068Z,1006.84
2018-05-08T09:44:24.073Z,1006.76
2018-05-08T09:45:24.305Z,1006.76
2018-05-08T09:46:24.076Z,1006.79
2018-05-08T09:47:24.292Z,1006.72
2018-05-08T09:48:24.082Z,1006.77
2018-05-08T09:49:24.085Z,1006.69
2018-05-08T09:50:24.108Z,1006.69
2018-05-08T09:51:24.096Z,1006.70
2018-05-08T09:52:24.295Z,1006.67
2018-05-08T09:53:24.113Z,1006.67
2018-05-08T09:54:24.105Z,1006.66
2018-05-08T09:55:24.301Z,1006.67
2018-05-08T09:56:24.103Z,1006.64
2018-05-08T09:57:24.116Z,1006.59
2018-05-08T09:58:24.115Z,1006.52
2018-05-08T09:59:24.312Z,1006.56
2018-05-08T10:00:24.121Z,1006.51
2018-05-08T10:01:24.114Z,1006.49
2018-05-08T10:02:24.138Z,1006.42
2018-05-08T10:03:24.332Z,1006.48
2018-05-08T10:04:24.119Z,1006.44
2018-05-08T10:05:24.206Z,1006.46
2018-05-08T10:06:24.139Z,1006.42
2018-05-08T10:07:24.125Z,1006.46
2018-05-08T10:08:24.135Z,1006.44
2018-05-08T10:09:24.136Z,1006.44
2018-05-08T10:10:24.133Z,1006.41
2018-05-08T10:11:24.341Z,1006.40
2018-05-08T10:12:24.139Z,1006.41
2018-05-08T10:13:24.347Z,1006.38
2018-05-08T10:14:24.360Z,1006.40
2018-05-08T10:15:24.362Z,1006.38
2018-05-08T10:16:24.363Z,1006.37
2018-05-08T10:17:24.171Z,1006.38
2018-05-08T10:18:24.371Z,1006.32
2018-05-08T10:19:24.192Z,1006.35
2018-05-08T10:20:24.162Z,1006.37
2018-05-08T10:21:24.175Z,1006.37
2018-05-08T10:22:24.180Z,1006.34
2018-05-08T10:23:24.166Z,1006.32
2018-05-08T10:24:24.186Z,1006.32
2018-05-08T10:25:24.176Z,1006.32
2018-05-08T10:26:24.188Z,1006.30
2018-05-08T10:27:24.181Z,1006.29
2018-05-08T10:28:24.195Z,1006.23
2018-05-08T10:29:24.200Z,1006.21
2018-05-08T10:30:24.412Z,1006.22
2018-05-08T10:31:24.199Z,1006.19
2018-05-08T10:32:24.205Z,1006.17
2018-05-08T10:33:24.197Z,1006.17
2018-05-08T10:34:24.417Z,1006.13
2018-05-08T10:35:24.213Z,1006.14
2018-05-08T10:36:24.201Z,1006.13
2018-05-08T10:37:24.222Z,1006.13
2018-05-08T10:38:24.208Z,1006.12
2018-05-08T10:39:24.239Z,1006.10
2018-05-08T10:40:24.419Z,1006.14
2018-05-08T10:41:24.229Z,1006.09
2018-05-08T10:42:24.221Z,1006.17
2018-05-08T10:43:24.235Z,1006.14
2018-05-08T10:44:24.253Z,1006.10
2018-05-08T10:45:24.229Z,1006.07
2018-05-08T10:46:24.267Z,1006.04
2018-05-08T10:47:24.236Z,1006.06
2018-05-08T10:48:24.235Z,1006.00
2018-05-08T10:49:24.455Z,1006.02
2018-05-08T10:50:24.257Z,1005.99
2018-05-08T10:51:24.259Z,1005.98
2018-05-08T10:52:24.451Z,1005.99
2018-05-08T10:53:24.251Z,1005.91
2018-05-08T10:54:24.477Z,1005.90
2018-05-08T10:55:24.271Z,1005.86
2018-05-08T10:56:24.489Z,1005.89
2018-05-08T10:57:24.466Z,1005.88
2018-05-08T10:58:24.294Z,1005.86
2018-05-08T10:59:24.473Z,1005.85
2018-05-08T11:00:24.284Z,1005.87
2018-05-08T11:01:24.300Z,1005.82
2018-05-08T11:02:24.279Z,1005.79
2018-05-08T11:03:24.280Z,1005.81
2018-05-08T11:04:24.490Z,1005.81
2018-05-08T11:05:24.286Z,1005.81
2018-05-08T11:06:24.303Z,1005.77
2018-05-08T11:07:24.308Z,1005.82
2018-05-08T11:08:24.294Z,1005.82
2018-05-08T11:09:24.302Z,1005.81
2018-05-08T11:10:24.304Z,1005.80
2018-05-08T11:11:24.318Z,1005.75
2018-05-08T11:12:24.571Z,1005.79
2018-05-08T11:13:24.321Z,1005.78
2018-05-08T11:14:24.535Z,1005.78
2018-05-08T11:15:24.532Z,1005.75
2018-05-08T11:16:24.324Z,1005.73
2018-05-08T11:17:24.323Z,1005.71
2018-05-08T11:18:24.554Z,1005.72
2018-05-08T11:19:24.332Z,1005.73
2018-05-08T11:20:24.561Z,1005.70
2018-05-08T11:21:24.541Z,1005.70
2018-05-08T11:22:24.337Z,1005.69
2018-05-08T11:23:24.547Z,1005.70
2018-05-08T11:24:24.356Z,1005.64
2018-05-08T11:25:24.358Z,1005.61
2018-05-08T11:26:24.382Z,1005.63
2018-05-08T11:27:24.571Z,1005.63
2018-05-08T11:28:24.366Z,1005.60
2018-05-08T11:29:24.360Z,1005.63
2018-05-08T11:30:24.375Z,1005.63
2018-05-08T11:31:24.380Z,1005.59
2018-05-08T11:32:24.381Z,1005.59
2018-05-08T11:33:24.371Z,1005.56
2018-05-08T11:34:24.379Z,1005.57
2018-05-08T11:35:24.584Z,1005.53
2018-05-08T11:36:24.392Z,1005.52
2018-05-08T11:37:24.600Z,1005.46
2018-05-08T11:38:24.593Z,1005.39
2018-05-08T11:39:24.489Z,1005.38
2018-05-08T11:40:24.395Z,1005.40
2018-05-08T11:41:24.413Z,1005.47
2018-05-08T11:42:24.403Z,1005.42
2018-05-08T11:43:24.413Z,1005.38
2018-05-08T11:44:24.420Z,1005.41
2018-05-08T11:45:24.421Z,1005.44
2018-05-08T11:46:24.628Z,1005.39
2018-05-08T11:47:24.431Z,1005.40
2018-05-08T11:48:24.637Z,1005.36
2018-05-08T11:49:24.435Z,1005.38
2018-05-08T11:50:24.438Z,1005.35
2018-05-08T11:51:24.428Z,1005.37
2018-05-08T11:52:24.443Z,1005.33
2018-05-08T11:53:24.437Z,1005.34
2018-05-08T11:54:24.718Z,1005.32
2018-05-08T11:55:24.648Z,1005.28
2018-05-08T11:56:24.445Z,1005.34
2018-05-08T11:57:24.665Z,1005.26
2018-05-08T11:58:24.655Z,1005.27
2018-05-08T11:59:24.660Z,1005.25
2018-05-08T12:00:24.482Z,1005.30
2018-05-08T12:01:24.462Z,1005.21
2018-05-08T12:02:24.476Z,1005.17
2018-05-08T12:03:24.679Z,1005.19
2018-05-08T12:04:24.483Z,1005.15
2018-05-08T12:05:24.473Z,1005.14